Time;durP1;ratioP1;P1;durP2;ratioP2;P2;SDS_P1;SDS_P2;PMS_P1;PMS_P2;Temp;Humidity;BMP_temperature;BMP_pressure;BME280_temperature;BME280_humidity;BME280_pressure;Samples;Min_cycle;Max_cycle;Signal;HPM_P1;HPM_P2
2023/08/02 00:00:45;;;;;;;;;;;;;;;16.83;62.30;96183.59;6126395;29;20468;-69
2023/08/02 00:03:48;;;;;;;;;;;;;;;16.82;62.53;96188.06;6126676;29;19927;-71
2023/08/02 00:06:49;;;;;;;;;;;;;;;16.80;62.76;96191.88;6126634;29;19927;-70
2023/08/02 00:09:50;;;;;;;;;;;;;;;16.84;61.71;96185.25;6126666;29;19958;-71
2023/08/02 00:12:54;;;;;;;;;;;;;;;16.83;62.41;96194.22;6126603;29;19933;-71
2023/08/02 00:15:57;;;;;;;;;;;;;;;16.84;62.30;96195.88;6109044;29;20021;-71
2023/08/02 00:18:59;;;;;;;;;;;;;;;16.93;62.37;96191.44;6125823;29;19934;-72
2023/08/02 00:22:02;;;;;;;;;;;;;;;16.98;63.07;96194.47;6126163;29;19930;-69
2023/08/02 00:25:06;;;;;;;;;;;;;;;16.99;61.99;96202.31;6109707;29;19927;-70
2023/08/02 00:28:07;;;;;;;;;;;;;;;17.01;62.04;96197.69;6125709;29;19926;-71
2023/08/02 00:31:09;;;;;;;;;;;;;;;17.08;62.02;96213.00;6126209;29;19930;-70
2023/08/02 00:34:14;;;;;;;;;;;;;;;17.01;62.55;96202.13;6126241;29;20371;-70
2023/08/02 00:37:19;;;;;;;;;;;;;;;17.03;62.38;96206.31;6126483;29;19927;-70
2023/08/02 00:40:24;;;;;;;;;;;;;;;17.04;62.41;96192.03;6126224;29;19926;-70
2023/08/02 00:43:25;;;;;;;;;;;;;;;17.07;62.38;96198.88;6125877;29;19934;-70
2023/08/02 00:46:30;;;;;;;;;;;;;;;17.11;61.87;96196.72;6125875;29;19926;-70
2023/08/02 00:49:34;;;;;;;;;;;;;;;17.16;62.38;96210.41;6125050;29;19934;-70
2023/08/02 00:52:37;;;;;;;;;;;;;;;17.10;62.66;96211.84;6109104;29;19927;-70
2023/08/02 00:55:41;;;;;;;;;;;;;;;17.10;63.26;96211.00;6125821;29;19927;-71
2023/08/02 00:58:43;;;;;;;;;;;;;;;17.10;63.29;96205.69;6117150;29;20107;-70
2023/08/02 01:01:49;;;;;;;;;;;;;;;17.10;62.92;96218.97;6125580;29;19959;-70
2023/08/02 01:04:52;;;;;;;;;;;;;;;17.14;62.78;96226.50;6125332;29;19926;-70
2023/08/02 01:07:58;;;;;;;;;;;;;;;17.16;62.36;96226.34;6125527;29;19922;-70
2023/08/02 01:11:06;;;;;;;;;;;;;;;17.22;62.08;96223.06;6125415;29;19926;-70
2023/08/02 01:14:12;;;;;;;;;;;;;;;17.23;61.90;96230.03;6125184;29;19922;-71
2023/08/02 01:17:15;;;;;;;;;;;;;;;17.28;62.40;96225.09;6125291;29;19927;-70
2023/08/02 01:20:19;;;;;;;;;;;;;;;17.42;63.24;96227.16;6125099;29;20286;-70
2023/08/02 01:23:25;;;;;;;;;;;;;;;17.47;63.47;96235.50;6125154;29;20444;-69
2023/08/02 01:26:28;;;;;;;;;;;;;;;17.46;63.78;96233.81;6125151;29;19927;-71
2023/08/02 01:29:29;;;;;;;;;;;;;;;17.46;63.92;96235.66;6125028;29;19933;-70
2023/08/02 01:32:33;;;;;;;;;;;;;;;17.47;64.24;96235.50;6125251;29;19926;-70
2023/08/02 01:35:37;;;;;;;;;;;;;;;17.45;64.22;96234.81;6125245;29;20402;-71
2023/08/02 01:38:39;;;;;;;;;;;;;;;17.49;64.41;96238.84;6124744;29;20393;-69
2023/08/02 01:41:40;;;;;;;;;;;;;;;17.50;64.18;96248.50;6125117;29;19950;-70
2023/08/02 01:44:44;;;;;;;;;;;;;;;17.53;63.83;96244.69;6108417;29;19926;-70
2023/08/02 01:47:48;;;;;;;;;;;;;;;17.65;64.10;96242.56;6124385;29;19926;-70
2023/08/02 01:50:50;;;;;;;;;;;;;;;17.71;63.94;96244.59;6124088;29;20320;-70
2023/08/02 01:53:51;;;;;;;;;;;;;;;17.72;63.97;96238.31;6106766;29;19926;-70
2023/08/02 01:56:55;;;;;;;;;;;;;;;17.75;64.03;96248.63;6124521;29;19927;-70
2023/08/02 01:59:56;;;;;;;;;;;;;;;17.80;63.63;96250.81;6124828;29;19933;-71
2023/08/02 02:03:00;;;;;;;;;;;;;;;17.86;64.06;96251.03;6124422;29;19933;-74
2023/08/02 02:06:03;;;;;;;;;;;;;;;17.94;63.37;96252.88;6123761;29;19934;-74
2023/08/02 02:09:07;;;;;;;;;;;;;;;18.04;63.13;96248.25;6123914;29;19926;-72
2023/08/02 02:12:08;;;;;;;;;;;;;;;18.12;62.78;96258.13;6123933;29;19927;-72
2023/08/02 02:15:13;;;;;;;;;;;;;;;18.24;62.96;96269.31;6124555;29;20406;-71
2023/08/02 02:18:16;;;;;;;;;;;;;;;18.39;62.90;96271.16;6123676;29;19947;-70
2023/08/02 02:21:20;;;;;;;;;;;;;;;18.59;62.64;96273.53;6107767;29;20309;-70
2023/08/02 02:24:21;;;;;;;;;;;;;;;18.76;62.43;96274.41;6109852;29;19927;-71
2023/08/02 02:27:25;;;;;;;;;;;;;;;18.67;62.44;96270.88;6129016;29;19926;-70
2023/08/02 02:30:30;;;;;;;;;;;;;;;18.74;62.52;96271.94;6112544;29;19927;-70
2023/08/02 02:33:31;;;;;;;;;;;;;;;18.83;62.35;96268.28;6127880;29;19927;-72
2023/08/02 02:36:32;;;;;;;;;;;;;;;18.95;61.97;96267.94;6128222;29;19931;-71
2023/08/02 02:39:33;;;;;;;;;;;;;;;18.98;61.94;96268.44;6128329;29;19973;-70
2023/08/02 02:42:40;;;;;;;;;;;;;;;19.07;61.67;96263.94;6128757;29;20022;-69
2023/08/02 02:45:41;;;;;;;;;;;;;;;19.07;61.56;96263.94;6127985;29;19926;-70
2023/08/02 02:48:42;;;;;;;;;;;;;;;19.11;61.45;96273.28;6128569;29;19927;-71
2023/08/02 02:51:44;;;;;;;;;;;;;;;19.21;61.48;96271.25;6120310;29;19933;-70
2023/08/02 02:54:45;;;;;;;;;;;;;;;19.19;61.63;96273.28;6127931;29;20372;-69
2023/08/02 02:57:51;;;;;;;;;;;;;;;19.16;61.53;96276.25;6128077;29;19926;-71
2023/08/02 03:00:56;;;;;;;;;;;;;;;19.36;61.71;96278.56;6111225;29;19923;-70
2023/08/02 03:03:58;;;;;;;;;;;;;;;19.47;61.27;96276.38;6127306;29;19937;-70
2023/08/02 03:07:00;;;;;;;;;;;;;;;19.49;61.05;96270.91;6127495;29;20811;-71
2023/08/02 03:10:01;;;;;;;;;;;;;;;19.73;60.66;96268.22;6111038;29;19927;-72
2023/08/02 03:13:03;;;;;;;;;;;;;;;19.68;60.71;96273.22;6127287;29;19937;-72
2023/08/02 03:16:04;;;;;;;;;;;;;;;19.85;60.15;96271.34;6127395;29;19926;-71
2023/08/02 03:19:08;;;;;;;;;;;;;;;19.89;60.07;96266.47;6127141;29;19926;-70
2023/08/02 03:22:12;;;;;;;;;;;;;;;19.95;59.70;96263.94;6126886;29;20290;-71
2023/08/02 03:25:13;;;;;;;;;;;;;;;20.00;59.56;96279.47;6127190;29;20317;-71
2023/08/02 03:28:19;;;;;;;;;;;;;;;20.03;59.26;96279.13;6110218;29;19934;-72
2023/08/02 03:31:23;;;;;;;;;;;;;;;20.14;59.06;96270.72;6110599;29;19926;-70
2023/08/02 03:34:24;;;;;;;;;;;;;;;20.15;58.88;96272.38;6126695;29;20479;-70
2023/08/02 03:37:27;;;;;;;;;;;;;;;20.21;58.92;96270.03;6126663;29;19933;-70
2023/08/02 03:40:28;;;;;;;;;;;;;;;20.29;58.82;96269.97;6127096;29;20313;-70
2023/08/02 03:43:31;;;;;;;;;;;;;;;20.44;58.42;96276.28;6126408;29;19934;-70
2023/08/02 03:46:35;;;;;;;;;;;;;;;20.49;58.09;96273.88;6126908;29;20033;-71
2023/08/02 03:49:40;;;;;;;;;;;;;;;20.59;57.78;96274.53;6127107;29;19927;-71
2023/08/02 03:52:40;;;;;;;;;;;;;;;20.67;57.62;96279.00;6127213;29;19926;-71
2023/08/02 03:55:42;;;;;;;;;;;;;;;20.74;57.55;96276.44;6126416;29;19926;-70
2023/08/02 03:58:47;;;;;;;;;;;;;;;20.87;57.05;96282.03;6127140;29;19926;-70
2023/08/02 04:01:53;;;;;;;;;;;;;;;20.99;56.59;96272.56;6126564;29;19931;-71
2023/08/02 04:04:56;;;;;;;;;;;;;;;21.06;56.35;96276.22;6126933;29;19927;-71
2023/08/02 04:07:58;;;;;;;;;;;;;;;21.16;55.93;96269.78;6126269;29;19933;-70
2023/08/02 04:11:03;;;;;;;;;;;;;;;21.23;55.75;96273.38;6126539;29;19926;-72
2023/08/02 04:14:04;;;;;;;;;;;;;;;21.32;55.53;96280.34;6125807;29;19937;-71
2023/08/02 04:17:10;;;;;;;;;;;;;;;21.42;55.16;96280.94;6109794;29;20385;-70
2023/08/02 04:20:15;;;;;;;;;;;;;;;21.63;54.35;96282.09;6126480;29;19986;-71
2023/08/02 04:23:19;;;;;;;;;;;;;;;21.73;53.17;96279.97;6125510;29;20420;-71
2023/08/02 04:26:20;;;;;;;;;;;;;;;21.75;52.70;96280.63;6125621;29;19927;-70
2023/08/02 04:29:23;;;;;;;;;;;;;;;21.82;52.73;96286.88;6126191;29;19926;-71
2023/08/02 04:32:25;;;;;;;;;;;;;;;21.89;52.82;96282.47;6125948;29;19933;-71
2023/08/02 04:35:28;;;;;;;;;;;;;;;22.19;52.02;96287.84;6126048;29;20422;-72
2023/08/02 04:38:35;;;;;;;;;;;;;;;22.34;51.69;96285.16;6126576;29;19927;-70
2023/08/02 04:41:40;;;;;;;;;;;;;;;22.43;51.31;96294.75;6126214;29;19926;-71
2023/08/02 04:44:44;;;;;;;;;;;;;;;22.70;50.35;96290.50;6126063;29;19926;-72
2023/08/02 04:47:49;;;;;;;;;;;;;;;24.68;48.30;96294.06;6125568;29;19926;-71
2023/08/02 04:50:53;;;;;;;;;;;;;;;28.42;41.85;96309.53;6125608;29;19933;-71
2023/08/02 04:53:57;;;;;;;;;;;;;;;31.33;37.23;96311.06;6125727;29;20305;-71
2023/08/02 04:57:01;;;;;;;;;;;;;;;34.43;32.89;96319.75;6125730;29;19930;-73
2023/08/02 05:00:06;;;;;;;;;;;;;;;37.90;29.80;96320.50;6125492;29;20389;-72
2023/08/02 05:03:07;;;;;;;;;;;;;;;40.67;27.18;96322.28;6125207;29;19926;-72
2023/08/02 05:06:12;;;;;;;;;;;;;;;42.69;25.13;96322.53;6125556;29;19940;-72
2023/08/02 05:09:17;;;;;;;;;;;;;;;43.13;20.24;96315.16;6125444;29;19926;-73
2023/08/02 05:12:19;;;;;;;;;;;;;;;43.40;20.12;96318.81;6124656;29;20393;-73
2023/08/02 05:15:23;;;;;;;;;;;;;;;43.98;19.34;96328.63;6125134;29;19926;-72
2023/08/02 05:18:27;;;;;;;;;;;;;;;45.09;20.40;96333.31;6125143;29;20313;-71
2023/08/02 05:21:30;;;;;;;;;;;;;;;46.03;17.92;96326.59;6124981;29;20397;-72
2023/08/02 05:24:34;;;;;;;;;;;;;;;47.12;17.89;96330.78;6125129;29;20397;-72
2023/08/02 05:27:36;;;;;;;;;;;;;;;49.36;16.88;96333.75;6108124;29;19927;-72
2023/08/02 05:30:39;;;;;;;;;;;;;;;49.72;14.96;96329.78;6124830;29;20316;-72
2023/08/02 05:33:43;;;;;;;;;;;;;;;50.29;15.50;96322.53;6124910;29;19934;-72
2023/08/02 05:36:45;;;;;;;;;;;;;;;51.02;15.03;96322.63;6125238;29;19938;-72
2023/08/02 05:39:48;;;;;;;;;;;;;;;51.20;12.80;96329.28;6108066;29;20021;-71
2023/08/02 05:42:52;;;;;;;;;;;;;;;50.03;13.79;96319.63;6107676;29;20029;-73
2023/08/02 05:45:54;;;;;;;;;;;;;;;49.81;12.93;96332.34;6106951;29;20389;-72
2023/08/02 05:48:57;;;;;;;;;;;;;;;49.13;13.63;96322.44;6107875;29;19930;-72
2023/08/02 05:52:00;;;;;;;;;;;;;;;48.83;13.68;96314.50;6124405;29;20312;-72
2023/08/02 05:55:04;;;;;;;;;;;;;;;49.25;13.92;96313.13;6124452;29;19927;-72
2023/08/02 05:58:07;;;;;;;;;;;;;;;51.14;12.58;96311.19;6125968;29;20025;-72
2023/08/02 06:01:10;;;;;;;;;;;;;;;52.35;11.63;96322.41;6132472;29;20304;-71
2023/08/02 06:04:13;;;;;;;;;;;;;;;50.21;12.75;96311.56;6115684;29;20326;-72
2023/08/02 06:07:16;;;;;;;;;;;;;;;48.63;13.63;96307.22;6115526;29;20311;-72
2023/08/02 06:10:20;;;;;;;;;;;;;;;48.75;13.67;96307.13;6115527;29;20397;-72
2023/08/02 06:13:24;;;;;;;;;;;;;;;49.13;13.80;96311.25;6132193;29;19927;-73
2023/08/02 06:16:27;;;;;;;;;;;;;;;47.84;14.42;96303.09;6132238;29;20025;-72
2023/08/02 06:19:30;;;;;;;;;;;;;;;45.67;15.91;96298.31;6114956;29;19927;-72
2023/08/02 06:22:34;;;;;;;;;;;;;;;43.45;17.19;96293.72;6131894;29;19931;-72
2023/08/02 06:25:37;;;;;;;;;;;;;;;40.75;18.92;96278.25;6132171;29;20017;-72
2023/08/02 06:28:41;;;;;;;;;;;;;;;37.97;21.22;96270.78;6132235;29;19926;-74
2023/08/02 06:31:47;;;;;;;;;;;;;;;36.81;22.70;96263.03;6124253;29;19930;-72
2023/08/02 06:34:50;;;;;;;;;;;;;;;35.72;23.45;96258.88;6131801;29;20211;-73
2023/08/02 06:37:53;;;;;;;;;;;;;;;34.95;24.61;96273.53;6131576;29;19934;-73
2023/08/02 06:40:57;;;;;;;;;;;;;;;37.68;21.92;96278.94;6115334;29;19927;-71
2023/08/02 06:44:00;;;;;;;;;;;;;;;41.25;18.74;96274.72;6131584;29;20017;-72
2023/08/02 06:47:04;;;;;;;;;;;;;;;40.56;19.25;96285.78;6131397;29;20017;-72
2023/08/02 06:50:07;;;;;;;;;;;;;;;37.58;21.96;96266.13;6115329;29;20013;-73
2023/08/02 06:53:12;;;;;;;;;;;;;;;35.24;24.39;96257.47;6131126;29;20432;-71
2023/08/02 06:56:16;;;;;;;;;;;;;;;34.02;25.34;96258.56;6131690;29;19926;-72
2023/08/02 06:59:19;;;;;;;;;;;;;;;33.15;26.61;96257.88;6114420;29;19937;-72
2023/08/02 07:02:22;;;;;;;;;;;;;;;32.17;28.01;96261.31;6131668;29;19933;-73
2023/08/02 07:05:28;;;;;;;;;;;;;;;31.33;29.62;96264.84;6131610;29;19926;-72
2023/08/02 07:08:34;;;;;;;;;;;;;;;30.38;30.52;96266.31;6131622;29;20304;-71
2023/08/02 07:11:37;;;;;;;;;;;;;;;29.90;31.81;96270.09;6110497;29;19926;-72
2023/08/02 07:14:40;;;;;;;;;;;;;;;29.33;31.98;96269.81;6127720;29;19927;-70
2023/08/02 07:17:44;;;;;;;;;;;;;;;29.18;32.25;96267.50;6119843;29;20405;-72
2023/08/02 07:20:48;;;;;;;;;;;;;;;29.29;32.44;96268.59;6127652;29;20313;-72
2023/08/02 07:23:52;;;;;;;;;;;;;;;29.75;31.48;96267.03;6127601;29;19926;-71
2023/08/02 07:26:58;;;;;;;;;;;;;;;30.66;31.20;96261.97;6127708;29;19927;-72
2023/08/02 07:30:02;;;;;;;;;;;;;;;31.51;29.78;96265.75;6127683;29;20457;-72
2023/08/02 07:33:07;;;;;;;;;;;;;;;31.48;30.76;96269.78;6127479;29;19926;-72
2023/08/02 07:36:15;;;;;;;;;;;;;;;31.03;32.02;96269.78;6127366;29;19927;-71
2023/08/02 07:39:18;;;;;;;;;;;;;;;30.65;32.40;96263.03;6127544;29;19927;-72
2023/08/02 07:42:21;;;;;;;;;;;;;;;30.36;32.31;96273.84;6110314;29;19927;-72
2023/08/02 07:45:25;;;;;;;;;;;;;;;30.38;32.73;96276.34;6127149;29;20017;-72
2023/08/02 07:48:29;;;;;;;;;;;;;;;30.05;34.54;96282.38;6126906;29;20378;-72
2023/08/02 07:51:33;;;;;;;;;;;;;;;29.48;35.05;96278.28;6127026;29;20436;-72
2023/08/02 07:54:37;;;;;;;;;;;;;;;29.01;36.25;96277.31;6126966;29;19927;-72
2023/08/02 07:57:41;;;;;;;;;;;;;;;28.66;36.74;96291.56;6127058;29;20011;-71
2023/08/02 08:00:44;;;;;;;;;;;;;;;28.80;37.02;96286.78;6126910;29;19933;-73
2023/08/02 08:03:48;;;;;;;;;;;;;;;28.77;37.66;96288.06;6126978;29;20299;-71
2023/08/02 08:06:51;;;;;;;;;;;;;;;28.89;37.18;96296.25;6126700;29;19969;-70
2023/08/02 08:09:54;;;;;;;;;;;;;;;29.31;37.02;96299.81;6109675;29;19927;-71
2023/08/02 08:12:58;;;;;;;;;;;;;;;29.51;37.45;96304.13;6126283;29;20310;-71
2023/08/02 08:16:01;;;;;;;;;;;;;;;30.04;36.70;96305.97;6125857;29;20380;-70
2023/08/02 08:19:05;;;;;;;;;;;;;;;31.02;35.75;96308.84;6126188;29;20393;-72
2023/08/02 08:22:08;;;;;;;;;;;;;;;31.47;34.90;96310.78;6125896;29;20408;-72
2023/08/02 08:25:12;;;;;;;;;;;;;;;31.72;34.53;96303.06;6126380;29;19930;-71
2023/08/02 08:28:15;;;;;;;;;;;;;;;31.88;34.48;96312.28;6109030;29;19927;-72
2023/08/02 08:31:18;;;;;;;;;;;;;;;31.69;34.67;96303.53;6093135;29;20409;-72
2023/08/02 08:34:23;;;;;;;;;;;;;;;31.33;36.08;96305.63;6126109;29;20005;-72
2023/08/02 08:37:26;;;;;;;;;;;;;;;30.96;36.97;96301.69;6109285;29;20071;-71
2023/08/02 08:40:32;;;;;;;;;;;;;;;30.64;37.00;96307.53;6125681;29;20027;-71
2023/08/02 08:43:35;;;;;;;;;;;;;;;30.80;37.10;96312.25;6125973;29;20017;-72
2023/08/02 08:46:40;;;;;;;;;;;;;;;30.86;36.80;96316.72;6125776;29;19933;-72
2023/08/02 08:49:47;;;;;;;;;;;;;;;31.02;36.37;96309.69;6125654;29;20382;-72
2023/08/02 08:52:52;;;;;;;;;;;;;;;31.39;35.37;96311.19;6125411;29;19927;-71
2023/08/02 08:55:56;;;;;;;;;;;;;;;31.70;34.69;96310.63;6125618;29;19933;-71
2023/08/02 08:59:01;;;;;;;;;;;;;;;31.79;34.21;96312.94;6125464;29;19922;-71
2023/08/02 09:02:05;;;;;;;;;;;;;;;31.95;34.04;96312.13;6125473;29;20304;-72
2023/08/02 09:05:08;;;;;;;;;;;;;;;32.39;32.77;96317.69;6108645;29;19922;-71
2023/08/02 09:08:11;;;;;;;;;;;;;;;33.14;32.14;96312.66;6108194;29;20313;-72
2023/08/02 09:11:15;;;;;;;;;;;;;;;34.26;30.51;96313.66;6124938;29;20017;-71
2023/08/02 09:14:19;;;;;;;;;;;;;;;36.34;27.26;96319.06;6125039;29;20398;-72
2023/08/02 09:17:21;;;;;;;;;;;;;;;36.79;26.40;96315.38;6125341;29;19986;-72
2023/08/02 09:20:26;;;;;;;;;;;;;;;35.98;26.58;96310.88;6125001;29;19937;-71
2023/08/02 09:23:28;;;;;;;;;;;;;;;35.00;27.68;96311.81;6125231;29;19926;-71
2023/08/02 09:26:32;;;;;;;;;;;;;;;34.29;28.71;96313.09;6108237;29;20051;-74
2023/08/02 09:29:48;;;;;;;;;;;;;;;34.01;28.78;96310.72;6124968;29;20010;-72
2023/08/02 09:32:58;;;;;;;;;;;;;;;33.40;29.12;96300.91;6124206;29;19934;-71
2023/08/02 09:36:00;;;;;;;;;;;;;;;33.03;29.68;96288.00;6124965;29;20025;-72
2023/08/02 09:39:11;;;;;;;;;;;;;;;32.68;29.71;96287.56;6124712;29;19960;-72
2023/08/02 09:42:14;;;;;;;;;;;;;;;32.49;30.02;96285.16;6124810;29;20029;-72
2023/08/02 09:45:30;;;;;;;;;;;;;;;32.59;30.09;96288.03;6124756;29;19927;-72
2023/08/02 09:48:36;;;;;;;;;;;;;;;33.05;29.48;96283.13;6107714;29;20401;-73
2023/08/02 09:51:40;;;;;;;;;;;;;;;33.52;28.87;96285.25;6124641;29;19933;-72
2023/08/02 09:54:42;;;;;;;;;;;;;;;34.00;28.29;96288.06;6124294;29;19927;-72
2023/08/02 09:57:47;;;;;;;;;;;;;;;34.80;27.18;96291.53;6123888;29;19926;-73
2023/08/02 10:00:50;;;;;;;;;;;;;;;35.29;26.92;96291.13;6124061;29;19926;-71
2023/08/02 10:03:57;;;;;;;;;;;;;;;35.57;26.50;96294.47;6124261;29;20029;-72
2023/08/02 10:07:02;;;;;;;;;;;;;;;35.27;26.78;96293.31;6124298;29;19927;-72
2023/08/02 10:10:08;;;;;;;;;;;;;;;34.73;27.00;96290.13;6124373;29;20389;-71
2023/08/02 10:13:21;;;;;;;;;;;;;;;34.47;27.37;96292.72;6107486;29;20047;-73
2023/08/02 10:16:24;;;;;;;;;;;;;;;34.52;27.40;96294.66;6124945;29;19975;-72
2023/08/02 10:19:27;;;;;;;;;;;;;;;34.42;27.48;96293.53;6124212;29;19926;-73
2023/08/02 10:22:31;;;;;;;;;;;;;;;33.91;27.87;96282.25;6124154;29;19927;-72
2023/08/02 10:25:37;;;;;;;;;;;;;;;33.44;28.45;96279.41;6107337;29;20308;-72
2023/08/02 10:28:40;;;;;;;;;;;;;;;33.05;28.88;96277.66;6124624;29;19963;-72
2023/08/02 10:31:44;;;;;;;;;;;;;;;32.85;29.07;96275.50;6124236;29;19926;-73
2023/08/02 10:34:49;;;;;;;;;;;;;;;32.85;28.91;96282.88;6123785;29;20367;-72
2023/08/02 10:37:54;;;;;;;;;;;;;;;32.58;29.30;96283.66;6123805;29;19927;-72
2023/08/02 10:41:11;;;;;;;;;;;;;;;32.32;29.53;96274.28;6124209;29;19927;-72
2023/08/02 10:44:18;;;;;;;;;;;;;;;31.94;30.22;96272.41;6108292;29;19927;-71
2023/08/02 10:47:27;;;;;;;;;;;;;;;31.78;30.26;96268.59;6128281;29;19927;-72
2023/08/02 10:50:48;;;;;;;;;;;;;;;31.57;30.78;96275.63;6128298;29;20025;-72
2023/08/02 10:54:10;;;;;;;;;;;;;;;31.26;31.16;96272.34;6128332;29;20029;-71
2023/08/02 10:57:14;;;;;;;;;;;;;;;31.06;31.35;96272.81;6128294;29;19927;-72
2023/08/02 11:00:18;;;;;;;;;;;;;;;30.89;32.16;96271.13;6128217;29;20325;-71
2023/08/02 11:03:31;;;;;;;;;;;;;;;30.59;32.28;96264.00;6128222;29;20021;-73
2023/08/02 11:06:35;;;;;;;;;;;;;;;30.60;32.30;96265.63;6128058;29;20017;-72
2023/08/02 11:09:39;;;;;;;;;;;;;;;30.70;32.62;96267.75;6127989;29;20304;-72
2023/08/02 11:12:51;;;;;;;;;;;;;;;30.64;33.28;96273.06;6127614;29;20420;-72
2023/08/02 11:16:05;;;;;;;;;;;;;;;30.25;34.16;96263.84;6128050;29;19926;-72
2023/08/02 11:19:10;;;;;;;;;;;;;;;29.64;35.63;96265.13;6127781;29;19922;-71
2023/08/02 11:22:13;;;;;;;;;;;;;;;29.11;37.23;96264.09;6124873;29;19931;-71
2023/08/02 11:25:20;;;;;;;;;;;;;;;28.74;37.73;96260.63;6127359;29;19922;-72
2023/08/02 11:28:24;;;;;;;;;;;;;;;28.55;38.37;96257.94;6127235;29;19931;-72
2023/08/02 11:31:28;;;;;;;;;;;;;;;28.36;38.75;96264.41;6127297;29;20025;-73
2023/08/02 11:34:37;;;;;;;;;;;;;;;28.18;38.93;96257.94;6127202;29;20047;-71
2023/08/02 11:37:40;;;;;;;;;;;;;;;28.19;39.37;96254.22;6127046;29;20316;-72
2023/08/02 11:40:44;;;;;;;;;;;;;;;28.11;39.56;96256.34;6127235;29;19954;-73
2023/08/02 11:43:47;;;;;;;;;;;;;;;28.21;39.22;96252.09;6110273;29;20312;-73
2023/08/02 11:46:54;;;;;;;;;;;;;;;28.23;38.68;96253.75;6126576;29;19927;-72
2023/08/02 11:49:56;;;;;;;;;;;;;;;28.45;38.08;96260.38;6127316;29;20017;-73
2023/08/02 11:53:09;;;;;;;;;;;;;;;28.56;37.69;96254.22;6126952;29;19927;-73
2023/08/02 11:56:12;;;;;;;;;;;;;;;28.78;36.95;96261.81;6126250;29;20311;-74
2023/08/02 11:59:16;;;;;;;;;;;;;;;29.18;36.06;96251.25;6110015;29;19926;-72
2023/08/02 12:02:25;;;;;;;;;;;;;;;29.61;35.15;96260.16;6109191;29;19927;-71
2023/08/02 12:05:29;;;;;;;;;;;;;;;29.92;34.54;96259.84;6126443;29;19927;-72
2023/08/02 12:08:35;;;;;;;;;;;;;;;30.28;34.26;96260.66;6126264;29;20025;-72
2023/08/02 12:11:38;;;;;;;;;;;;;;;30.67;33.35;96255.47;6126401;29;19927;-72
2023/08/02 12:14:41;;;;;;;;;;;;;;;30.77;33.15;96262.97;6126434;29;19928;-72
2023/08/02 12:17:45;;;;;;;;;;;;;;;30.59;33.64;96261.28;6126002;29;19933;-72
2023/08/02 12:20:49;;;;;;;;;;;;;;;30.44;34.12;96259.09;6125828;29;19926;-71
2023/08/02 12:23:53;;;;;;;;;;;;;;;30.45;33.89;96251.75;6108916;29;19931;-72
2023/08/02 12:26:55;;;;;;;;;;;;;;;30.33;34.57;96257.22;6108634;29;19927;-72
2023/08/02 12:30:16;;;;;;;;;;;;;;;30.40;34.59;96261.47;6093268;29;19927;-72
2023/08/02 12:33:19;;;;;;;;;;;;;;;30.67;34.47;96263.63;6125491;29;19926;-72
2023/08/02 12:36:26;;;;;;;;;;;;;;;31.26;34.23;96253.31;6125623;29;19926;-73
2023/08/02 12:39:30;;;;;;;;;;;;;;;31.56;34.00;96245.94;6125682;29;19927;-72
2023/08/02 12:42:33;;;;;;;;;;;;;;;31.40;34.14;96248.44;6125305;29;20396;-73
2023/08/02 12:45:37;;;;;;;;;;;;;;;31.13;34.93;96250.91;6108685;29;20309;-73
2023/08/02 12:48:41;;;;;;;;;;;;;;;30.63;35.42;96240.72;6126094;29;19931;-72
2023/08/02 12:51:45;;;;;;;;;;;;;;;30.32;36.29;96240.13;6125535;29;19933;-71
2023/08/02 12:54:49;;;;;;;;;;;;;;;30.26;36.27;96238.34;6108541;29;19933;-71
2023/08/02 12:57:52;;;;;;;;;;;;;;;30.53;35.58;96241.34;6108402;29;20033;-73
2023/08/02 13:00:56;;;;;;;;;;;;;;;30.64;35.29;96236.94;6108410;29;19949;-72
2023/08/02 13:03:59;;;;;;;;;;;;;;;30.86;35.24;96243.38;6125196;29;19926;-73
2023/08/02 13:07:03;;;;;;;;;;;;;;;30.75;35.36;96244.22;6125068;29;20312;-72
2023/08/02 13:10:06;;;;;;;;;;;;;;;30.80;35.33;96246.22;6124586;29;19954;-71
2023/08/02 13:13:09;;;;;;;;;;;;;;;31.06;35.42;96256.50;6125091;29;20419;-71
2023/08/02 13:16:13;;;;;;;;;;;;;;;31.20;34.94;96259.75;6124978;29;19933;-73
2023/08/02 13:19:16;;;;;;;;;;;;;;;30.92;34.42;96267.94;6124957;29;19933;-71
2023/08/02 13:22:19;;;;;;;;;;;;;;;30.67;33.58;96274.47;6124987;29;19934;-72
2023/08/02 13:25:23;;;;;;;;;;;;;;;30.35;33.92;96272.22;6108292;29;19962;-71
2023/08/02 13:28:26;;;;;;;;;;;;;;;30.13;33.46;96269.25;6107776;29;20017;-71
2023/08/02 13:31:30;;;;;;;;;;;;;;;29.86;33.98;96271.63;6124702;29;19926;-72
2023/08/02 13:34:33;;;;;;;;;;;;;;;29.79;33.05;96264.69;6124604;29;19926;-71
2023/08/02 13:37:38;;;;;;;;;;;;;;;29.11;34.22;96272.22;6107443;29;19950;-72
2023/08/02 13:40:42;;;;;;;;;;;;;;;28.55;34.57;96263.38;6107481;29;20555;-73
2023/08/02 13:43:45;;;;;;;;;;;;;;;28.42;34.86;96268.94;6124426;29;20396;-72
2023/08/02 13:46:49;;;;;;;;;;;;;;;28.41;34.79;96272.66;6124062;29;19933;-72
2023/08/02 13:49:54;;;;;;;;;;;;;;;28.41;34.89;96278.91;6107360;29;19933;-73
2023/08/02 13:52:58;;;;;;;;;;;;;;;28.10;35.33;96271.75;6124413;29;19927;-72
2023/08/02 13:56:02;;;;;;;;;;;;;;;27.70;36.07;96280.25;6124489;29;19926;-72
2023/08/02 13:59:05;;;;;;;;;;;;;;;27.42;36.42;96279.88;6124125;29;20312;-72
2023/08/02 14:02:27;;;;;;;;;;;;;;;26.98;37.41;96268.13;6110169;29;19926;-71
2023/08/02 14:05:31;;;;;;;;;;;;;;;26.69;38.00;96264.94;6124206;29;19933;-72
2023/08/02 14:08:33;;;;;;;;;;;;;;;26.63;38.07;96269.31;6124330;29;19931;-71
2023/08/02 14:11:36;;;;;;;;;;;;;;;26.46;38.41;96270.00;6107395;29;19927;-71
2023/08/02 14:14:40;;;;;;;;;;;;;;;26.04;39.43;96267.66;6106993;29;19934;-72
2023/08/02 14:17:42;;;;;;;;;;;;;;;25.59;40.25;96274.75;6107404;29;19926;-72
2023/08/02 14:20:45;;;;;;;;;;;;;;;25.25;40.74;96279.31;6110594;29;19927;-72
2023/08/02 14:23:48;;;;;;;;;;;;;;;25.22;41.29;96293.19;6112255;29;19934;-72
2023/08/02 14:26:52;;;;;;;;;;;;;;;25.10;41.51;96293.75;6128666;29;19927;-71
2023/08/02 14:29:54;;;;;;;;;;;;;;;25.12;41.81;96307.03;6128950;29;19926;-72
2023/08/02 14:32:57;;;;;;;;;;;;;;;25.13;42.10;96318.63;6111869;29;19933;-72
2023/08/02 14:35:59;;;;;;;;;;;;;;;25.08;42.26;96314.69;6128692;29;20380;-72
2023/08/02 14:39:02;;;;;;;;;;;;;;;25.08;42.43;96320.06;6128790;29;19933;-73
2023/08/02 14:42:05;;;;;;;;;;;;;;;25.04;42.55;96318.81;6111412;29;19933;-72
2023/08/02 14:45:09;;;;;;;;;;;;;;;25.06;42.74;96326.69;6111244;29;20393;-72
2023/08/02 14:48:12;;;;;;;;;;;;;;;25.11;42.69;96326.91;6128021;29;20401;-72
2023/08/02 14:51:15;;;;;;;;;;;;;;;25.10;42.32;96326.06;6128089;29;19933;-72
2023/08/02 14:54:19;;;;;;;;;;;;;;;25.15;42.36;96316.59;6128329;29;19933;-72
2023/08/02 14:57:23;;;;;;;;;;;;;;;25.10;41.92;96320.66;6127855;29;20013;-71
2023/08/02 15:00:26;;;;;;;;;;;;;;;25.05;42.45;96328.56;6127922;29;19933;-72
2023/08/02 15:03:30;;;;;;;;;;;;;;;25.00;42.00;96336.41;6127596;29;19926;-72
2023/08/02 15:06:34;;;;;;;;;;;;;;;24.99;42.32;96344.66;6111004;29;19930;-70
2023/08/02 15:09:37;;;;;;;;;;;;;;;24.90;41.99;96352.09;6128007;29;19934;-71
2023/08/02 15:12:40;;;;;;;;;;;;;;;24.78;42.28;96359.09;6110816;29;20316;-71
2023/08/02 15:15:44;;;;;;;;;;;;;;;24.60;42.68;96360.47;6127489;29;20021;-71
2023/08/02 15:18:47;;;;;;;;;;;;;;;24.43;43.18;96359.16;6127313;29;19926;-71
2023/08/02 15:21:51;;;;;;;;;;;;;;;24.35;43.04;96359.28;6127118;29;19927;-71
2023/08/02 15:24:55;;;;;;;;;;;;;;;24.28;43.21;96369.16;6127131;29;19933;-72
2023/08/02 15:27:58;;;;;;;;;;;;;;;24.23;44.86;96377.81;6109998;29;20017;-72
2023/08/02 15:31:02;;;;;;;;;;;;;;;24.13;45.05;96374.66;6109279;29;19927;-73
2023/08/02 15:34:06;;;;;;;;;;;;;;;23.82;46.34;96383.94;6127529;29;20013;-72
2023/08/02 15:37:10;;;;;;;;;;;;;;;23.57;47.43;96385.34;6127026;29;20029;-73
2023/08/02 15:40:13;;;;;;;;;;;;;;;23.31;48.45;96374.16;6127077;29;19934;-71
2023/08/02 15:43:17;;;;;;;;;;;;;;;23.02;49.15;96369.72;6126874;29;19934;-72
2023/08/02 15:46:21;;;;;;;;;;;;;;;22.91;49.55;96366.69;6126550;29;19927;-73
2023/08/02 15:49:24;;;;;;;;;;;;;;;22.77;49.91;96366.53;6110394;29;20025;-71
2023/08/02 15:52:27;;;;;;;;;;;;;;;22.64;50.21;96363.66;6126939;29;20020;-73
2023/08/02 15:55:31;;;;;;;;;;;;;;;22.57;50.39;96365.44;6126912;29;19926;-72
2023/08/02 15:58:35;;;;;;;;;;;;;;;22.49;50.50;96362.88;6126727;29;20372;-71